Temp: 4.0°C   Baro: 1036.6mb
  Wind: 0.0mph   Dir: WNW (301°)
  Rain: 0.0mm (0.0mm/hr)
  Solar: 0W/m2  Hum: 85%

Historic data

Bath Spa Weather Station Historical Data
Daily Summary for December 7, 2019 Units:  Both    English   Metric
Daily Weekly Monthly Yearly Custom
  High: Low: Average:
Temperature: 51.8 °F /  11 °C 47.1 °F /  8.4 °C 49.5 °F /  9.7 °C
Dew Point: 48.4 °F /  9.1 °C 43.9 °F /  6.6 °C 45.7 °F /  7.6 °C
Humidity: 91% 82% 87%
Wind Speed: 13.7mph /  22km/h - 4.6mph /  7.4km/h
Wind Gust: 27mph /  43.5km/h - -
Wind- - WSW
Pressure: 29.97 in /  1014.8 hPa 29.62 in /  1002.9 hPa -
Precipitation: 0.05 in /  1.27 mm    
Historical Graphs
 
 
Tabular Data for December 7, 2019
Time Temperature Dew Point Pressure Wind Wind Speed Wind Gust Humidity Rainfall Rate (Hourly) solar
00:09 48.7 °F /  9.3 °C 44.8 °F /  7.1 °C 29.86in /  1011.1hPa West 2.4mph /  3.9km/h 10mph /  16.1km/h 86% 0.00in /  0mm 0 W/m2
00:14 48.6 °F /  9.2 °C 44.7 °F /  7.1 °C 29.86in /  1011.1hPa West 6.2mph /  10km/h 16mph /  25.7km/h 86% 0.00in /  0mm 0 W/m2
00:19 48.6 °F /  9.2 °C 44.6 °F /  7 °C 29.86in /  1011.1hPa West 5.4mph /  8.7km/h 16mph /  25.7km/h 86% 0.00in /  0mm 0 W/m2
00:24 48.4 °F /  9.1 °C 44.8 °F /  7.1 °C 29.86in /  1011.1hPa WNW 8.8mph /  14.2km/h 16mph /  25.7km/h 87% 0.00in /  0mm 0 W/m2
00:29 48.3 °F /  9.1 °C 44.7 °F /  7.1 °C 29.86in /  1011.1hPa West 7mph /  11.3km/h 16mph /  25.7km/h 87% 0.00in /  0mm 0 W/m2
00:34 48 °F /  8.9 °C 44.4 °F /  6.9 °C 29.86in /  1011.1hPa West 7.8mph /  12.6km/h 17mph /  27.4km/h 87% 0.00in /  0mm 0 W/m2
00:39 48 °F /  8.9 °C 44.4 °F /  6.9 °C 29.86in /  1011.1hPa West 5.6mph /  9km/h 21mph /  33.8km/h 87% 0.00in /  0mm 0 W/m2
00:44 47.9 °F /  8.8 °C 44.3 °F /  6.8 °C 29.86in /  1011.1hPa West 4.7mph /  7.6km/h 15mph /  24.1km/h 87% 0.00in /  0mm 0 W/m2
00:49 47.8 °F /  8.8 °C 44.2 °F /  6.8 °C 29.86in /  1011.1hPa West 6mph /  9.7km/h 15mph /  24.1km/h 87% 0.00in /  0mm 0 W/m2
00:54 47.7 °F /  8.7 °C 44.2 °F /  6.8 °C 29.86in /  1011.1hPa West 3.3mph /  5.3km/h 11mph /  17.7km/h 87.8% 0.00in /  0mm 0 W/m2
00:59 47.7 °F /  8.7 °C 44.2 °F /  6.8 °C 29.86in /  1011.1hPa West 0.5mph /  0.8km/h 8mph /  12.9km/h 88% 0.00in /  0mm 0 W/m2
01:04 47.7 °F /  8.7 °C 44.1 °F /  6.7 °C 29.86in /  1011.1hPa West 1.6mph /  2.6km/h 4mph /  6.4km/h 87.4% 0.00in /  0mm 0 W/m2
01:09 47.8 °F /  8.8 °C 44.3 °F /  6.8 °C 29.87in /  1011.4hPa West 2.2mph /  3.5km/h 5mph /  8km/h 87.6% 0.00in /  0mm 0 W/m2
01:14 47.8 °F /  8.8 °C 44.3 °F /  6.8 °C 29.87in /  1011.4hPa West 1.7mph /  2.7km/h 5mph /  8km/h 87.4% 0.00in /  0mm 0 W/m2
01:19 47.8 °F /  8.8 °C 44.2 °F /  6.8 °C 29.86in /  1011.1hPa West 1.4mph /  2.3km/h 5mph /  8km/h 87% 0.00in /  0mm 0 W/m2
01:24 47.8 °F /  8.8 °C 44.2 °F /  6.8 °C 29.86in /  1011.1hPa West 2.4mph /  3.9km/h 5mph /  8km/h 87% 0.00in /  0mm 0 W/m2
01:29 48 °F /  8.9 °C 44.4 °F /  6.9 °C 29.87in /  1011.4hPa West 2.4mph /  3.9km/h 6mph /  9.7km/h 87% 0.00in /  0mm 0 W/m2
01:34 48 °F /  8.9 °C 44.4 °F /  6.9 °C 29.87in /  1011.4hPa WSW 2mph /  3.2km/h 6mph /  9.7km/h 87% 0.00in /  0mm 0 W/m2
01:39 48 °F /  8.9 °C 44.4 °F /  6.9 °C 29.87in /  1011.4hPa WSW 2.2mph /  3.5km/h 5mph /  8km/h 87% 0.00in /  0mm 0 W/m2
01:44 48 °F /  8.9 °C 44.4 °F /  6.9 °C 29.88in /  1011.7hPa WSW 1.6mph /  2.6km/h 3mph /  4.8km/h 87% 0.00in /  0mm 0 W/m2
01:49 47.8 °F /  8.8 °C 44.2 °F /  6.8 °C 29.88in /  1011.7hPa WSW 2.8mph /  4.5km/h 6mph /  9.7km/h 87% 0.00in /  0mm 0 W/m2
01:54 47.8 °F /  8.8 °C 44.2 °F /  6.8 °C 29.88in /  1011.7hPa WSW 3.8mph /  6.1km/h 6mph /  9.7km/h 87% 0.00in /  0mm 0 W/m2
01:59 47.8 °F /  8.8 °C 44.2 °F /  6.8 °C 29.88in /  1011.7hPa WSW 2.4mph /  3.9km/h 4mph /  6.4km/h 87% 0.00in /  0mm 0 W/m2
02:04 47.8 °F /  8.8 °C 44.2 °F /  6.8 °C 29.88in /  1011.7hPa WSW 1.2mph /  1.9km/h 5mph /  8km/h 87% 0.00in /  0mm 0 W/m2
02:09 47.8 °F /  8.8 °C 44.2 °F /  6.8 °C 29.88in /  1011.7hPa WSW 2.4mph /  3.9km/h 8mph /  12.9km/h 87% 0.00in /  0mm 0 W/m2
02:14 48 °F /  8.9 °C 44.4 °F /  6.9 °C 29.88in /  1011.7hPa WSW 2mph /  3.2km/h 8mph /  12.9km/h 87% 0.00in /  0mm 0 W/m2
02:19 48 °F /  8.9 °C 44.4 °F /  6.9 °C 29.88in /  1011.7hPa WSW 1.2mph /  1.9km/h 5mph /  8km/h 87% 0.00in /  0mm 0 W/m2
02:24 48.3 °F /  9.1 °C 44.7 °F /  7.1 °C 29.88in /  1011.7hPa WSW 1.8mph /  2.9km/h 5mph /  8km/h 87% 0.00in /  0mm 0 W/m2
02:29 48.4 °F /  9.1 °C 44.4 °F /  6.9 °C 29.88in /  1011.7hPa WSW 1.7mph /  2.7km/h 6mph /  9.7km/h 86% 0.00in /  0mm 0 W/m2
02:34 48.5 °F /  9.2 °C 44.5 °F /  6.9 °C 29.89in /  1012.1hPa West 1.2mph /  1.9km/h 6mph /  9.7km/h 86% 0.00in /  0mm 0 W/m2
02:39 48.6 °F /  9.2 °C 44.6 °F /  7 °C 29.89in /  1012.1hPa West 2.3mph /  3.7km/h 6mph /  9.7km/h 86% 0.00in /  0mm 0 W/m2
02:44 48.7 °F /  9.3 °C 44.5 °F /  6.9 °C 29.89in /  1012.1hPa West 2mph /  3.2km/h 9mph /  14.5km/h 85.4% 0.00in /  0mm 0 W/m2
02:49 48.9 °F /  9.4 °C 44.4 °F /  6.9 °C 29.89in /  1012.1hPa West 2.5mph /  4km/h 5mph /  8km/h 84.5% 0.00in /  0mm 0 W/m2
02:54 48.9 °F /  9.4 °C 44.2 °F /  6.8 °C 29.89in /  1012.1hPa West 4.4mph /  7.1km/h 6mph /  9.7km/h 83.4% 0.00in /  0mm 0 W/m2
02:59 48.9 °F /  9.4 °C 44.1 °F /  6.7 °C 29.89in /  1012.1hPa WSW 3.6mph /  5.8km/h 10mph /  16.1km/h 83% 0.00in /  0mm 0 W/m2
03:04 49 °F /  9.4 °C 44.1 °F /  6.7 °C 29.89in /  1012.1hPa WSW 2.9mph /  4.7km/h 10mph /  16.1km/h 83% 0.00in /  0mm 0 W/m2
03:09 48.8 °F /  9.3 °C 44 °F /  6.7 °C 29.89in /  1012.1hPa West 1.2mph /  1.9km/h 7mph /  11.3km/h 83.2% 0.00in /  0mm 0 W/m2
03:14 48.6 °F /  9.2 °C 43.9 °F /  6.6 °C 29.89in /  1012.1hPa West 2mph /  3.2km/h 5mph /  8km/h 84% 0.00in /  0mm 0 W/m2
03:19 48.6 °F /  9.2 °C 44 °F /  6.7 °C 29.89in /  1012.1hPa Calm   3mph /  4.8km/h 84.4% 0.00in /  0mm 0 W/m2
03:24 48.4 °F /  9.1 °C 44.1 °F /  6.7 °C 29.90in /  1012.4hPa Calm   2mph /  3.2km/h 85% 0.00in /  0mm 0 W/m2
03:29 48.4 °F /  9.1 °C 44.1 °F /  6.7 °C 29.90in /  1012.4hPa West 1mph /  1.6km/h 3mph /  4.8km/h 85% 0.00in /  0mm 0 W/m2
03:34 48.3 °F /  9.1 °C 44.3 °F /  6.8 °C 29.90in /  1012.4hPa West 0.8mph /  1.3km/h 3mph /  4.8km/h 85.8% 0.00in /  0mm 0 W/m2
03:39 48.2 °F /  9 °C 44.2 °F /  6.8 °C 29.90in /  1012.4hPa West 0.7mph /  1.1km/h 3mph /  4.8km/h 86% 0.00in /  0mm 0 W/m2
03:44 48 °F /  8.9 °C 44.2 °F /  6.8 °C 29.90in /  1012.4hPa West 0.8mph /  1.3km/h 3mph /  4.8km/h 86.2% 0.00in /  0mm 0 W/m2
03:49 48 °F /  8.9 °C 44.3 °F /  6.8 °C 29.90in /  1012.4hPa Calm   3mph /  4.8km/h 86.8% 0.00in /  0mm 0 W/m2
03:54 47.8 °F /  8.8 °C 44.2 °F /  6.8 °C 29.90in /  1012.4hPa West 0.4mph /  0.6km/h 2mph /  3.2km/h 87% 0.00in /  0mm 0 W/m2
03:59 47.8 °F /  8.8 °C 44.2 °F /  6.8 °C 29.90in /  1012.4hPa West 0.4mph /  0.6km/h 3mph /  4.8km/h 87% 0.00in /  0mm 0 W/m2
04:04 47.8 °F /  8.8 °C 44.3 °F /  6.8 °C 29.90in /  1012.4hPa West 0.7mph /  1.1km/h 2mph /  3.2km/h 87.4% 0.00in /  0mm 0 W/m2
04:09 47.8 °F /  8.8 °C 44.4 °F /  6.9 °C 29.90in /  1012.4hPa West 1.5mph /  2.4km/h 4mph /  6.4km/h 88% 0.00in /  0mm 0 W/m2
04:14 47.8 °F /  8.8 °C 44.4 °F /  6.9 °C 29.90in /  1012.4hPa West 0.2mph /  0.3km/h 3mph /  4.8km/h 88% 0.00in /  0mm 0 W/m2
04:19 47.8 °F /  8.8 °C 44.4 °F /  6.9 °C 29.90in /  1012.4hPa Calm     88% 0.00in /  0mm 0 W/m2
04:24 47.7 °F /  8.7 °C 44.3 °F /  6.8 °C 29.90in /  1012.4hPa West 0.2mph /  0.3km/h 1mph /  1.6km/h 88% 0.00in /  0mm 0 W/m2
04:29 47.7 °F /  8.7 °C 44.2 °F /  6.8 °C 29.91in /  1012.8hPa Calm   1mph /  1.6km/h 88% 0.00in /  0mm 0 W/m2
04:34 47.7 °F /  8.7 °C 44.2 °F /  6.8 °C 29.91in /  1012.8hPa Calm     88% 0.00in /  0mm 0 W/m2
04:39 47.6 °F /  8.7 °C 44.1 °F /  6.7 °C 29.91in /  1012.8hPa West 0.5mph /  0.8km/h 2mph /  3.2km/h 88% 0.00in /  0mm 0 W/m2
04:44 47.5 °F /  8.6 °C 44.2 °F /  6.8 °C 29.91in /  1012.8hPa West 0.2mph /  0.3km/h 2mph /  3.2km/h 88.2% 0.00in /  0mm 0 W/m2
04:49 47.5 °F /  8.6 °C 44.4 °F /  6.9 °C 29.91in /  1012.8hPa West 1.2mph /  1.9km/h 4mph /  6.4km/h 89% 0.00in /  0mm 0 W/m2
04:54 47.5 °F /  8.6 °C 44.4 °F /  6.9 °C 29.91in /  1012.8hPa West 1.1mph /  1.8km/h 4mph /  6.4km/h 89% 0.00in /  0mm 0 W/m2
04:59 47.6 °F /  8.7 °C 44.5 °F /  6.9 °C 29.91in /  1012.8hPa West 1.5mph /  2.4km/h 3mph /  4.8km/h 89% 0.00in /  0mm 0 W/m2
05:04 47.6 °F /  8.7 °C 44.5 °F /  6.9 °C 29.91in /  1012.8hPa West 1mph /  1.6km/h 6mph /  9.7km/h 89% 0.00in /  0mm 0 W/m2
05:09 47.7 °F /  8.7 °C 44.6 °F /  7 °C 29.91in /  1012.8hPa West 0.4mph /  0.6km/h 6mph /  9.7km/h 89% 0.00in /  0mm 0 W/m2
05:14 47.7 °F /  8.7 °C 44.6 °F /  7 °C 29.91in /  1012.8hPa West 2.2mph /  3.5km/h 4mph /  6.4km/h 89% 0.00in /  0mm 0 W/m2
05:19 47.7 °F /  8.7 °C 44.6 °F /  7 °C 29.91in /  1012.8hPa West 2.5mph /  4km/h 6mph /  9.7km/h 89% 0.00in /  0mm 0 W/m2
05:24 47.7 °F /  8.7 °C 44.6 °F /  7 °C 29.91in /  1012.8hPa West 2.8mph /  4.5km/h 6mph /  9.7km/h 89% 0.00in /  0mm 0 W/m2
05:29 47.7 °F /  8.7 °C 44.6 °F /  7 °C 29.91in /  1012.8hPa West 1.5mph /  2.4km/h 5mph /  8km/h 89% 0.00in /  0mm 0 W/m2
05:34 47.7 °F /  8.7 °C 44.6 °F /  7 °C 29.92in /  1013.1hPa West 0.8mph /  1.3km/h 4mph /  6.4km/h 89% 0.00in /  0mm 0 W/m2
05:39 47.7 °F /  8.7 °C 44.6 °F /  7 °C 29.91in /  1012.8hPa Calm   2mph /  3.2km/h 89% 0.00in /  0mm 0 W/m2
05:43 47.8 °F /  8.8 °C 44.7 °F /  7.1 °C 29.91in /  1012.8hPa Calm   1mph /  1.6km/h 89% 0.00in /  0mm 0 W/m2
05:49 47.7 °F /  8.7 °C 44.6 °F /  7 °C 29.91in /  1012.8hPa West 0.2mph /  0.3km/h 1mph /  1.6km/h 89% 0.00in /  0mm 0 W/m2
05:54 47.7 °F /  8.7 °C 44.6 °F /  7 °C 29.91in /  1012.8hPa Calm     89% 0.00in /  0mm 0 W/m2
05:59 47.7 °F /  8.7 °C 44.9 °F /  7.2 °C 29.92in /  1013.1hPa Calm     89.8% 0.00in /  0mm 0 W/m2
06:03 47.7 °F /  8.7 °C 44.9 °F /  7.2 °C 29.92in /  1013.1hPa Calm     89.8% 0.00in /  0mm 0 W/m2
06:09 47.7 °F /  8.7 °C 44.7 °F /  7.1 °C 29.92in /  1013.1hPa West 0.2mph /  0.3km/h 1mph /  1.6km/h 89.2% 0.00in /  0mm 0 W/m2
06:14 47.5 °F /  8.6 °C 44.4 °F /  6.9 °C 29.93in /  1013.4hPa West 1.5mph /  2.4km/h 3mph /  4.8km/h 89% 0.00in /  0mm 0 W/m2
06:19 47.5 °F /  8.6 °C 44.7 °F /  7.1 °C 29.93in /  1013.4hPa West 0.4mph /  0.6km/h 3mph /  4.8km/h 89.8% 0.00in /  0mm 0 W/m2
06:24 47.5 °F /  8.6 °C 44.8 °F /  7.1 °C 29.93in /  1013.4hPa West 0.8mph /  1.3km/h 3mph /  4.8km/h 90% 0.00in /  0mm 0 W/m2
06:29 47.5 °F /  8.6 °C 44.8 °F /  7.1 °C 29.93in /  1013.4hPa Calm   3mph /  4.8km/h 90% 0.00in /  0mm 0 W/m2
06:34 47.5 °F /  8.6 °C 44.8 °F /  7.1 °C 29.93in /  1013.4hPa West 0.5mph /  0.8km/h 3mph /  4.8km/h 90% 0.00in /  0mm 0 W/m2
06:39 47.3 °F /  8.5 °C 44.6 °F /  7 °C 29.94in /  1013.8hPa West 1.2mph /  1.9km/h 3mph /  4.8km/h 90% 0.00in /  0mm 0 W/m2
06:44 47.3 °F /  8.5 °C 44.6 °F /  7 °C 29.95in /  1014.1hPa West 0.2mph /  0.3km/h 3mph /  4.8km/h 90% 0.00in /  0mm 0 W/m2
06:49 47.2 °F /  8.4 °C 44.5 °F /  6.9 °C 29.95in /  1014.1hPa Calm   2mph /  3.2km/h 90% 0.00in /  0mm 0 W/m2
06:54 47.2 °F /  8.4 °C 44.5 °F /  6.9 °C 29.95in /  1014.1hPa West 1.4mph /  2.3km/h 4mph /  6.4km/h 90% 0.00in /  0mm 0 W/m2
06:59 47.3 °F /  8.5 °C 44.6 °F /  7 °C 29.95in /  1014.1hPa West 0.7mph /  1.1km/h 3mph /  4.8km/h 90% 0.00in /  0mm 0 W/m2
07:04 47.3 °F /  8.5 °C 44.6 °F /  7 °C 29.95in /  1014.1hPa West 0.8mph /  1.3km/h 5mph /  8km/h 90% 0.00in /  0mm 0 W/m2
07:09 47.3 °F /  8.5 °C 44.6 °F /  7 °C 29.96in /  1014.4hPa Calm   5mph /  8km/h 90% 0.00in /  0mm 0 W/m2
07:14 47.5 °F /  8.6 °C 44.8 °F /  7.1 °C 29.96in /  1014.4hPa West 0.6mph /  1km/h 2mph /  3.2km/h 90% 0.00in /  0mm 0 W/m2
07:18 47.3 °F /  8.5 °C 44.7 °F /  7.1 °C 29.96in /  1014.4hPa Calm   1mph /  1.6km/h 90% 0.00in /  0mm 0 W/m2
07:24 47.5 °F /  8.6 °C 44.8 °F /  7.1 °C 29.96in /  1014.4hPa Calm     90% 0.00in /  0mm 0 W/m2
07:29 47.5 °F /  8.6 °C 44.8 °F /  7.1 °C 29.97in /  1014.8hPa Calm     90% 0.00in /  0mm 0 W/m2
07:34 47.5 °F /  8.6 °C 44.8 °F /  7.1 °C 29.97in /  1014.8hPa Calm     90% 0.00in /  0mm 0 W/m2
07:39 47.2 °F /  8.4 °C 44.5 °F /  6.9 °C 29.97in /  1014.8hPa Calm     90% 0.00in /  0mm 0 W/m2
07:44 47.1 °F /  8.4 °C 44.5 °F /  6.9 °C 29.96in /  1014.4hPa Calm     90.2% 0.00in /  0mm 0 W/m2
07:49 47.1 °F /  8.4 °C 44.5 °F /  6.9 °C 29.96in /  1014.4hPa Calm     90.2% 0.00in /  0mm 0 W/m2
07:54 47.1 °F /  8.4 °C 44.5 °F /  6.9 °C 29.96in /  1014.4hPa Calm     90.2% 0.00in /  0mm 0 W/m2
07:58 47.1 °F /  8.4 °C 44.5 °F /  6.9 °C 29.96in /  1014.4hPa Calm     90.3% 0.00in /  0mm 0 W/m2
08:04 47.1 °F /  8.4 °C 44.6 °F /  7 °C 29.96in /  1014.4hPa West 1.4mph /  2.3km/h 5mph /  8km/h 91% 0.00in /  0mm 0 W/m2
08:09 47.2 °F /  8.4 °C 44.7 °F /  7.1 °C 29.96in /  1014.4hPa West 3.6mph /  5.8km/h 6mph /  9.7km/h 91% 0.00in /  0mm 9 W/m2
08:14 47.5 °F /  8.6 °C 45 °F /  7.2 °C 29.96in /  1014.4hPa WSW 2.5mph /  4km/h 6mph /  9.7km/h 91% 0.00in /  0mm 11 W/m2
08:19 47.7 °F /  8.7 °C 45.1 °F /  7.3 °C 29.96in /  1014.4hPa WSW 2.1mph /  3.4km/h 5mph /  8km/h 91% 0.00in /  0mm 11 W/m2
08:24 47.7 °F /  8.7 °C 45.1 °F /  7.3 °C 29.96in /  1014.4hPa WSW 1.2mph /  1.9km/h 4mph /  6.4km/h 91% 0.00in /  0mm 12 W/m2
08:29 47.8 °F /  8.8 °C 45.1 °F /  7.3 °C 29.96in /  1014.4hPa WSW 2.1mph /  3.4km/h 5mph /  8km/h 90.4% 0.00in /  0mm 12 W/m2
08:34 47.8 °F /  8.8 °C 45 °F /  7.2 °C 29.97in /  1014.8hPa WSW 3.9mph /  6.3km/h 8mph /  12.9km/h 90% 0.00in /  0mm 16 W/m2
08:38 47.9 °F /  8.8 °C 45.1 °F /  7.3 °C 29.97in /  1014.8hPa WSW 3.5mph /  5.6km/h 8mph /  12.9km/h 90% 0.00in /  0mm 25 W/m2
08:44 48 °F /  8.9 °C 45.1 °F /  7.3 °C 29.96in /  1014.4hPa West 4.1mph /  6.6km/h 8mph /  12.9km/h 90% 0.00in /  0mm 32 W/m2
08:49 48.2 °F /  9 °C 45.3 °F /  7.4 °C 29.96in /  1014.4hPa West 7mph /  11.3km/h 12mph /  19.3km/h 90% 0.00in /  0mm 33 W/m2
08:54 48.4 °F /  9.1 °C 45.5 °F /  7.5 °C 29.96in /  1014.4hPa West 5.6mph /  9km/h 12mph /  19.3km/h 89.8% 0.00in /  0mm 35 W/m2
08:59 48.4 °F /  9.1 °C 45.3 °F /  7.4 °C 29.96in /  1014.4hPa WSW 6.2mph /  10km/h 11mph /  17.7km/h 89% 0.00in /  0mm 47 W/m2
09:04 48.4 °F /  9.1 °C 45.3 °F /  7.4 °C 29.96in /  1014.4hPa West 3.9mph /  6.3km/h 9mph /  14.5km/h 89% 0.00in /  0mm 47 W/m2
09:09 48.1 °F /  8.9 °C 45 °F /  7.2 °C 29.96in /  1014.4hPa WSW 3mph /  4.8km/h 7mph /  11.3km/h 89% 0.00in /  0mm 47 W/m2
09:14 48 °F /  8.9 °C 45 °F /  7.2 °C 29.95in /  1014.1hPa WSW 2.1mph /  3.4km/h 6mph /  9.7km/h 89% 0.00in /  0mm 49 W/m2
09:19 48.3 °F /  9.1 °C 45.1 °F /  7.3 °C 29.95in /  1014.1hPa WSW 3.3mph /  5.3km/h 6mph /  9.7km/h 88.6% 0.00in /  0mm 53 W/m2
09:24 48.5 °F /  9.2 °C 45.1 °F /  7.3 °C 29.95in /  1014.1hPa SW 3.3mph /  5.3km/h 8mph /  12.9km/h 88% 0.00in /  0mm 58 W/m2
09:29 48.7 °F /  9.3 °C 45.1 °F /  7.3 °C 29.96in /  1014.4hPa SW 2mph /  3.2km/h 5mph /  8km/h 87.8% 0.00in /  0mm 44 W/m2
09:34 48.6 °F /  9.2 °C 44.9 °F /  7.2 °C 29.96in /  1014.4hPa SW 0.9mph /  1.4km/h 5mph /  8km/h 87% 0.00in /  0mm 54 W/m2
09:39 48.6 °F /  9.2 °C 44.8 °F /  7.1 °C 29.95in /  1014.1hPa SW 3.2mph /  5.1km/h 10mph /  16.1km/h 87% 0.00in /  0mm 62 W/m2
09:44 48.5 °F /  9.2 °C 44.8 °F /  7.1 °C 29.95in /  1014.1hPa SSW 4.6mph /  7.4km/h 7mph /  11.3km/h 87% 0.00in /  0mm 83 W/m2
09:49 48.4 °F /  9.1 °C 44.8 °F /  7.1 °C 29.95in /  1014.1hPa SW 3.6mph /  5.8km/h 9mph /  14.5km/h 87% 0.00in /  0mm 81 W/m2
09:54 48.4 °F /  9.1 °C 44.8 °F /  7.1 °C 29.96in /  1014.4hPa SW 5.1mph /  8.2km/h 9mph /  14.5km/h 87% 0.00in /  0mm 84 W/m2
09:59 48.4 °F /  9.1 °C 45 °F /  7.2 °C 29.96in /  1014.4hPa WSW 4.6mph /  7.4km/h 10mph /  16.1km/h 87.8% 0.00in /  0mm 84 W/m2
10:04 48.6 °F /  9.2 °C 45.1 °F /  7.3 °C 29.96in /  1014.4hPa WSW 5.8mph /  9.3km/h 10mph /  16.1km/h 88% 0.00in /  0mm 107 W/m2
10:09 48.6 °F /  9.2 °C 45.1 °F /  7.3 °C 29.96in /  1014.4hPa WSW 5.8mph /  9.3km/h 11mph /  17.7km/h 88% 0.00in /  0mm 113 W/m2
10:14 48.8 °F /  9.3 °C 45.3 °F /  7.4 °C 29.96in /  1014.4hPa SW 4.9mph /  7.9km/h 10mph /  16.1km/h 88% 0.00in /  0mm 111 W/m2
10:19 49.2 °F /  9.6 °C 45.8 °F /  7.7 °C 29.95in /  1014.1hPa WSW 5.8mph /  9.3km/h 9mph /  14.5km/h 88% 0.00in /  0mm 111 W/m2
10:24 49.6 °F /  9.8 °C 46.1 °F /  7.8 °C 29.95in /  1014.1hPa WSW 6.7mph /  10.8km/h 12mph /  19.3km/h 87.6% 0.00in /  0mm 121 W/m2
10:29 49.8 °F /  9.9 °C 46 °F /  7.8 °C 29.95in /  1014.1hPa WSW 6.7mph /  10.8km/h 11mph /  17.7km/h 87% 0.00in /  0mm 125 W/m2
10:34 50 °F /  10 °C 46 °F /  7.8 °C 29.95in /  1014.1hPa SW 9.4mph /  15.1km/h 16mph /  25.7km/h 86% 0.00in /  0mm 125 W/m2
10:39 49.8 °F /  9.9 °C 45.7 °F /  7.6 °C 29.94in /  1013.8hPa WSW 5.8mph /  9.3km/h 15mph /  24.1km/h 85.6% 0.00in /  0mm 118 W/m2
10:44 50.1 °F /  10.1 °C 45.9 °F /  7.7 °C 29.95in /  1014.1hPa West 5.4mph /  8.7km/h 8mph /  12.9km/h 85.4% 0.00in /  0mm 134 W/m2
10:49 50.2 °F /  10.1 °C 45.8 °F /  7.7 °C 29.95in /  1014.1hPa WSW 6.4mph /  10.3km/h 11mph /  17.7km/h 84.8% 0.00in /  0mm 160 W/m2
10:53 50.2 °F /  10.1 °C 45.5 °F /  7.5 °C 29.95in /  1014.1hPa West 6.3mph /  10.1km/h 12mph /  19.3km/h 84% 0.00in /  0mm 141 W/m2
10:59 50.2 °F /  10.1 °C 45.5 °F /  7.5 °C 29.95in /  1014.1hPa West 5.2mph /  8.4km/h 12mph /  19.3km/h 84% 0.00in /  0mm 142 W/m2
11:04 50.6 °F /  10.3 °C 45.9 °F /  7.7 °C 29.94in /  1013.8hPa WSW 7.4mph /  11.9km/h 12mph /  19.3km/h 84% 0.00in /  0mm 149 W/m2
11:09 50.6 °F /  10.3 °C 45.5 °F /  7.5 °C 29.94in /  1013.8hPa WSW 10.8mph /  17.4km/h 15mph /  24.1km/h 82.6% 0.00in /  0mm 142 W/m2
11:14 50.6 °F /  10.3 °C 45.4 °F /  7.4 °C 29.94in /  1013.8hPa WSW 8.6mph /  13.8km/h 16mph /  25.7km/h 82% 0.00in /  0mm 146 W/m2
11:19 50.6 °F /  10.3 °C 45.4 °F /  7.4 °C 29.94in /  1013.8hPa WSW 6.1mph /  9.8km/h 14mph /  22.5km/h 82% 0.00in /  0mm 167 W/m2
11:24 50.9 °F /  10.5 °C 45.7 °F /  7.6 °C 29.94in /  1013.8hPa SW 7.8mph /  12.6km/h 13mph /  20.9km/h 82.2% 0.00in /  0mm 120 W/m2
11:29 50.5 °F /  10.3 °C 45.5 °F /  7.5 °C 29.94in /  1013.8hPa WSW 8.4mph /  13.5km/h 15mph /  24.1km/h 82.8% 0.00in /  0mm 113 W/m2
11:34 50.5 °F /  10.3 °C 45.5 °F /  7.5 °C 29.94in /  1013.8hPa WSW 6.8mph /  10.9km/h 13mph /  20.9km/h 83% 0.00in /  0mm 128 W/m2
11:39 50.5 °F /  10.3 °C 45.5 °F /  7.5 °C 29.94in /  1013.8hPa WSW 7mph /  11.3km/h 14mph /  22.5km/h 83% 0.00in /  0mm 91 W/m2
11:44 50.7 °F /  10.4 °C 45.7 °F /  7.6 °C 29.94in /  1013.8hPa WSW 5.2mph /  8.4km/h 11mph /  17.7km/h 83% 0.00in /  0mm 134 W/m2
11:49 50.8 °F /  10.4 °C 45.8 °F /  7.7 °C 29.94in /  1013.8hPa WSW 6.4mph /  10.3km/h 11mph /  17.7km/h 83% 0.00in /  0mm 130 W/m2
11:54 51.1 °F /  10.6 °C 46 °F /  7.8 °C 29.94in /  1013.8hPa WSW 3.6mph /  5.8km/h 9mph /  14.5km/h 83% 0.00in /  0mm 139 W/m2
11:59 51.3 °F /  10.7 °C 46.2 °F /  7.9 °C 29.94in /  1013.8hPa WSW 6.6mph /  10.6km/h 11mph /  17.7km/h 83% 0.00in /  0mm 144 W/m2
12:04 51.4 °F /  10.8 °C 46.4 °F /  8 °C 29.94in /  1013.8hPa West 3.3mph /  5.3km/h 11mph /  17.7km/h 83% 0.00in /  0mm 114 W/m2
12:08 51.3 °F /  10.7 °C 46.2 °F /  7.9 °C 29.95in /  1014.1hPa WSW 9.1mph /  14.6km/h 16mph /  25.7km/h 83% 0.00in /  0mm 132 W/m2
12:14 51.4 °F /  10.8 °C 46.2 °F /  7.9 °C 29.94in /  1013.8hPa SW 7.4mph /  11.9km/h 14mph /  22.5km/h 82.4% 0.00in /  0mm 116 W/m2
12:19 51.3 °F /  10.7 °C 46 °F /  7.8 °C 29.94in /  1013.8hPa WSW 5.9mph /  9.5km/h 13mph /  20.9km/h 82% 0.00in /  0mm 114 W/m2
12:24 51.3 °F /  10.7 °C 46 °F /  7.8 °C 29.94in /  1013.8hPa WSW 8.4mph /  13.5km/h 14mph /  22.5km/h 82% 0.00in /  0mm 135 W/m2
12:29 51.3 °F /  10.7 °C 46 °F /  7.8 °C 29.94in /  1013.8hPa WSW 6mph /  9.7km/h 13mph /  20.9km/h 82% 0.00in /  0mm 116 W/m2
12:34 51.3 °F /  10.7 °C 46 °F /  7.8 °C 29.94in /  1013.8hPa West 7mph /  11.3km/h 10mph /  16.1km/h 82% 0.00in /  0mm 111 W/m2
12:39 51.3 °F /  10.7 °C 46 °F /  7.8 °C 29.93in /  1013.4hPa WSW 7.2mph /  11.6km/h 16mph /  25.7km/h 82% 0.00in /  0mm 93 W/m2
12:44 51.2 °F /  10.7 °C 45.9 °F /  7.7 °C 29.93in /  1013.4hPa West 9.2mph /  14.8km/h 14mph /  22.5km/h 82% 0.00in /  0mm 105 W/m2
12:49 51.1 °F /  10.6 °C 46 °F /  7.8 °C 29.93in /  1013.4hPa WSW 8.6mph /  13.8km/h 14mph /  22.5km/h 83% 0.00in /  0mm 134 W/m2
12:54 51.2 °F /  10.7 °C 46.1 °F /  7.8 °C 29.93in /  1013.4hPa WSW 6.8mph /  10.9km/h 10mph /  16.1km/h 83% 0.00in /  0mm 128 W/m2
12:59 51.2 °F /  10.7 °C 46.1 °F /  7.8 °C 29.93in /  1013.4hPa WSW 8.8mph /  14.2km/h 14mph /  22.5km/h 83% 0.00in /  0mm 125 W/m2
13:04 51.1 °F /  10.6 °C 46 °F /  7.8 °C 29.92in /  1013.1hPa WSW 7.4mph /  11.9km/h 14mph /  22.5km/h 83% 0.00in /  0mm 113 W/m2
13:09 51.1 °F /  10.6 °C 46 °F /  7.8 °C 29.92in /  1013.1hPa SW 4.9mph /  7.9km/h 11mph /  17.7km/h 83% 0.00in /  0mm 104 W/m2
13:14 51.2 °F /  10.7 °C 46.1 °F /  7.8 °C 29.92in /  1013.1hPa SW 7.6mph /  12.2km/h 12mph /  19.3km/h 83% 0.00in /  0mm 127 W/m2
13:19 51.3 °F /  10.7 °C 46.2 °F /  7.9 °C 29.92in /  1013.1hPa WSW 5.8mph /  9.3km/h 13mph /  20.9km/h 83% 0.00in /  0mm 118 W/m2
13:24 51.3 °F /  10.7 °C 46.2 °F /  7.9 °C 29.92in /  1013.1hPa WSW 4.9mph /  7.9km/h 14mph /  22.5km/h 83% 0.00in /  0mm 132 W/m2
13:29 51.3 °F /  10.7 °C 46.2 °F /  7.9 °C 29.92in /  1013.1hPa WSW 7.4mph /  11.9km/h 13mph /  20.9km/h 83% 0.00in /  0mm 123 W/m2
13:34 51.3 °F /  10.7 °C 46.1 °F /  7.8 °C 29.91in /  1012.8hPa WSW 8.7mph /  14km/h 16mph /  25.7km/h 82.2% 0.00in /  0mm 163 W/m2
13:39 51.4 °F /  10.8 °C 46.2 °F /  7.9 °C 29.91in /  1012.8hPa WSW 7.8mph /  12.6km/h 16mph /  25.7km/h 82% 0.00in /  0mm 123 W/m2
13:44 51.4 °F /  10.8 °C 46.2 °F /  7.9 °C 29.91in /  1012.8hPa WSW 9.2mph /  14.8km/h 17mph /  27.4km/h 82% 0.00in /  0mm 97 W/m2
13:49 51.3 °F /  10.7 °C 46.1 °F /  7.8 °C 29.91in /  1012.8hPa WSW 7.2mph /  11.6km/h 17mph /  27.4km/h 82.5% 0.00in /  0mm 109 W/m2
13:54 51.1 °F /  10.6 °C 46 °F /  7.8 °C 29.91in /  1012.8hPa West 11mph /  17.7km/h 15mph /  24.1km/h 82.6% 0.00in /  0mm 81 W/m2
13:59 51.1 °F /  10.6 °C 46 °F /  7.8 °C 29.91in /  1012.8hPa WSW 10.8mph /  17.4km/h 17mph /  27.4km/h 83% 0.00in /  0mm 62 W/m2
14:04 50.9 °F /  10.5 °C 45.9 °F /  7.7 °C 29.91in /  1012.8hPa WSW 7.4mph /  11.9km/h 15mph /  24.1km/h 83% 0.00in /  0mm 56 W/m2
14:09 50.7 °F /  10.4 °C 45.7 °F /  7.6 °C 29.91in /  1012.8hPa WSW 7.6mph /  12.2km/h 16mph /  25.7km/h 83% 0.00in /  0mm 51 W/m2
14:14 50.7 °F /  10.4 °C 45.7 °F /  7.6 °C 29.91in /  1012.8hPa West 6.8mph /  10.9km/h 15mph /  24.1km/h 83% 0.00in /  0mm 47 W/m2
14:19 50.7 °F /  10.4 °C 45.7 °F /  7.6 °C 29.91in /  1012.8hPa WSW 7.2mph /  11.6km/h 13mph /  20.9km/h 83% 0.00in /  0mm 47 W/m2
14:24 50.7 °F /  10.4 °C 45.7 °F /  7.6 °C 29.91in /  1012.8hPa WSW 7.2mph /  11.6km/h 14mph /  22.5km/h 83% 0.00in /  0mm 40 W/m2
14:29 50.7 °F /  10.4 °C 45.7 °F /  7.6 °C 29.91in /  1012.8hPa WSW 2.5mph /  4km/h 10mph /  16.1km/h 83% 0.00in /  0mm 40 W/m2
14:34 50.7 °F /  10.4 °C 45.8 °F /  7.7 °C 29.91in /  1012.8hPa WSW 5.1mph /  8.2km/h 13mph /  20.9km/h 83.2% 0.00in /  0mm 32 W/m2
14:39 50.7 °F /  10.4 °C 46 °F /  7.8 °C 29.91in /  1012.8hPa SW 5.1mph /  8.2km/h 9mph /  14.5km/h 84% 0.00in /  0mm 32 W/m2
14:44 50.7 °F /  10.4 °C 46 °F /  7.8 °C 29.91in /  1012.8hPa WSW 3.9mph /  6.3km/h 11mph /  17.7km/h 84% 0.00in /  0mm 32 W/m2
14:48 50.7 °F /  10.4 °C 46 °F /  7.8 °C 29.91in /  1012.8hPa SW 3mph /  4.8km/h 8mph /  12.9km/h 84% 0.00in /  0mm 35 W/m2
14:54 50.7 °F /  10.4 °C 46 °F /  7.8 °C 29.91in /  1012.8hPa SW 6.2mph /  10km/h 10mph /  16.1km/h 84% 0.00in /  0mm 33 W/m2
14:59 50.7 °F /  10.4 °C 46 °F /  7.8 °C 29.91in /  1012.8hPa SSW 5mph /  8km/h 10mph /  16.1km/h 84% 0.00in /  0mm 28 W/m2
15:04 50.7 °F /  10.4 °C 46 °F /  7.8 °C 29.91in /  1012.8hPa SW 4.5mph /  7.2km/h 8mph /  12.9km/h 84% 0.00in /  0mm 25 W/m2
15:09 50.7 °F /  10.4 °C 46.2 °F /  7.9 °C 29.91in /  1012.8hPa SW 5.8mph /  9.3km/h 8mph /  12.9km/h 84.6% 0.00in /  0mm 21 W/m2
15:14 50.5 °F /  10.3 °C 46.2 °F /  7.9 °C 29.91in /  1012.8hPa SSW 6.2mph /  10km/h 10mph /  16.1km/h 85% 0.00in /  0mm 19 W/m2
15:19 50.5 °F /  10.3 °C 46.2 °F /  7.9 °C 29.91in /  1012.8hPa SW 4mph /  6.4km/h 10mph /  16.1km/h 85% 0.00in /  0mm 16 W/m2
15:24 50.5 °F /  10.3 °C 46.2 °F /  7.9 °C 29.92in /  1013.1hPa SW 3.3mph /  5.3km/h 9mph /  14.5km/h 85% 0.00in /  0mm 14 W/m2
15:29 50.5 °F /  10.3 °C 46.2 °F /  7.9 °C 29.92in /  1013.1hPa SW 3.7mph /  6km/h 9mph /  14.5km/h 85% 0.00in /  0mm 11 W/m2
15:34 50.5 °F /  10.3 °C 46.2 °F /  7.9 °C 29.92in /  1013.1hPa SSW 2.9mph /  4.7km/h 6mph /  9.7km/h 85% 0.00in /  0mm 11 W/m2
15:39 50.4 °F /  10.2 °C 46.1 °F /  7.8 °C 29.91in /  1012.8hPa SW 6mph /  9.7km/h 9mph /  14.5km/h 85% 0.00in /  0mm 7 W/m2
15:44 50.4 °F /  10.2 °C 46 °F /  7.8 °C 29.91in /  1012.8hPa SW 3.1mph /  5km/h 8mph /  12.9km/h 85% 0.00in /  0mm 5 W/m2
15:49 50.3 °F /  10.2 °C 46 °F /  7.8 °C 29.91in /  1012.8hPa SW 5.3mph /  8.5km/h 9mph /  14.5km/h 85.2% 0.00in /  0mm 5 W/m2
15:54 50.2 °F /  10.1 °C 46.2 °F /  7.9 °C 29.91in /  1012.8hPa SW 3.7mph /  6km/h 8mph /  12.9km/h 86% 0.00in /  0mm 0 W/m2
15:59 50.2 °F /  10.1 °C 46.2 °F /  7.9 °C 29.91in /  1012.8hPa SW 2.7mph /  4.3km/h 9mph /  14.5km/h 86% 0.00in /  0mm 0 W/m2
16:04 50.2 °F /  10.1 °C 46.2 °F /  7.9 °C 29.91in /  1012.8hPa SW 3.7mph /  6km/h 8mph /  12.9km/h 86% 0.00in /  0mm 0 W/m2
16:08 50.2 °F /  10.1 °C 46.2 °F /  7.9 °C 29.90in /  1012.4hPa SSW 4.5mph /  7.2km/h 9mph /  14.5km/h 86% 0.00in /  0mm 0 W/m2
16:14 50.2 °F /  10.1 °C 46.2 °F /  7.9 °C 29.90in /  1012.4hPa SSW 5.9mph /  9.5km/h 11mph /  17.7km/h 86% 0.00in /  0mm 0 W/m2
16:19 50 °F /  10 °C 46 °F /  7.8 °C 29.89in /  1012.1hPa SSW 6.4mph /  10.3km/h 9mph /  14.5km/h 86% 0.00in /  0mm 0 W/m2
16:24 50 °F /  10 °C 46 °F /  7.8 °C 29.89in /  1012.1hPa SW 7mph /  11.3km/h 11mph /  17.7km/h 86% 0.00in /  0mm 0 W/m2
16:29 50 °F /  10 °C 46 °F /  7.8 °C 29.90in /  1012.4hPa SW 5mph /  8km/h 13mph /  20.9km/h 86% 0.00in /  0mm 0 W/m2
16:34 50 °F /  10 °C 46 °F /  7.8 °C 29.90in /  1012.4hPa SW 6.2mph /  10km/h 10mph /  16.1km/h 86% 0.00in /  0mm 0 W/m2
16:39 50 °F /  10 °C 45.8 °F /  7.7 °C 29.89in /  1012.1hPa SW 4.8mph /  7.7km/h 9mph /  14.5km/h 85.2% 0.00in /  0mm 0 W/m2
16:44 50 °F /  10 °C 45.7 °F /  7.6 °C 29.89in /  1012.1hPa SW 8.6mph /  13.8km/h 13mph /  20.9km/h 85% 0.00in /  0mm 0 W/m2
16:49 50.1 °F /  10.1 °C 45.8 °F /  7.7 °C 29.90in /  1012.4hPa SW 4.1mph /  6.6km/h 14mph /  22.5km/h 85% 0.00in /  0mm 0 W/m2
16:54 50.1 °F /  10.1 °C 45.8 °F /  7.7 °C 29.89in /  1012.1hPa WSW 4.7mph /  7.6km/h 10mph /  16.1km/h 85% 0.00in /  0mm 0 W/m2
16:59 50.2 °F /  10.1 °C 45.9 °F /  7.7 °C 29.89in /  1012.1hPa WSW 7.4mph /  11.9km/h 11mph /  17.7km/h 85% 0.00in /  0mm 0 W/m2
17:04 50.2 °F /  10.1 °C 46 °F /  7.8 °C 29.90in /  1012.4hPa SW 6.6mph /  10.6km/h 11mph /  17.7km/h 85.4% 0.00in /  0mm 0 W/m2
17:09 50.2 °F /  10.1 °C 46.2 °F /  7.9 °C 29.90in /  1012.4hPa SW 5.8mph /  9.3km/h 9mph /  14.5km/h 86% 0.00in /  0mm 0 W/m2
17:14 50.1 °F /  10.1 °C 46.1 °F /  7.8 °C 29.89in /  1012.1hPa WSW 5.3mph /  8.5km/h 10mph /  16.1km/h 86% 0.00in /  0mm 0 W/m2
17:19 50.1 °F /  10.1 °C 46.1 °F /  7.8 °C 29.89in /  1012.1hPa SW 1.9mph /  3.1km/h 7mph /  11.3km/h 86% 0.00in /  0mm 0 W/m2
17:24 50.1 °F /  10.1 °C 46.1 °F /  7.8 °C 29.89in /  1012.1hPa WSW 2.4mph /  3.9km/h 7mph /  11.3km/h 86% 0.00in /  0mm 0 W/m2
17:29 50 °F /  10 °C 46 °F /  7.8 °C 29.89in /  1012.1hPa WSW 4mph /  6.4km/h 8mph /  12.9km/h 86% 0.00in /  0mm 0 W/m2
17:34 50 °F /  10 °C 46 °F /  7.8 °C 29.89in /  1012.1hPa SW 4mph /  6.4km/h 7mph /  11.3km/h 86% 0.00in /  0mm 0 W/m2
17:39 50.1 °F /  10.1 °C 46.1 °F /  7.8 °C 29.89in /  1012.1hPa SW 3.7mph /  6km/h 8mph /  12.9km/h 86% 0.00in /  0mm 0 W/m2
17:44 50 °F /  10 °C 46 °F /  7.8 °C 29.89in /  1012.1hPa SW 2.4mph /  3.9km/h 6mph /  9.7km/h 86% 0.00in /  0mm 0 W/m2
17:49 50 °F /  10 °C 46 °F /  7.8 °C 29.88in /  1011.7hPa SW 3.6mph /  5.8km/h 7mph /  11.3km/h 86% 0.00in /  0mm 0 W/m2
17:54 50.2 °F /  10.1 °C 46.2 °F /  7.9 °C 29.88in /  1011.7hPa SW 1.4mph /  2.3km/h 4mph /  6.4km/h 86% 0.00in /  0mm 0 W/m2
17:59 50.2 °F /  10.1 °C 46.2 °F /  7.9 °C 29.88in /  1011.7hPa SW 3.2mph /  5.1km/h 10mph /  16.1km/h 86% 0.00in /  0mm 0 W/m2
18:04 50.2 °F /  10.1 °C 46.2 °F /  7.9 °C 29.88in /  1011.7hPa SW 5.2mph /  8.4km/h 10mph /  16.1km/h 86% 0.00in /  0mm 0 W/m2
18:09 50.2 °F /  10.1 °C 46.1 °F /  7.8 °C 29.88in /  1011.7hPa WSW 2.1mph /  3.4km/h 8mph /  12.9km/h 85.8% 0.00in /  0mm 0 W/m2
18:14 50.2 °F /  10.1 °C 45.9 °F /  7.7 °C 29.88in /  1011.7hPa SW 2mph /  3.2km/h 6mph /  9.7km/h 85% 0.00in /  0mm 0 W/m2
18:19 50.2 °F /  10.1 °C 45.9 °F /  7.7 °C 29.87in /  1011.4hPa SSW 2.4mph /  3.9km/h 7mph /  11.3km/h 85% 0.00in /  0mm 0 W/m2
18:24 50.2 °F /  10.1 °C 46 °F /  7.8 °C 29.86in /  1011.1hPa SSW 3mph /  4.8km/h 7mph /  11.3km/h 85.2% 0.00in /  0mm 0 W/m2
18:29 50.1 °F /  10.1 °C 46 °F /  7.8 °C 29.85in /  1010.7hPa South 5.2mph /  8.4km/h 9mph /  14.5km/h 85.8% 0.00in /  0mm 0 W/m2
18:34 50.2 °F /  10.1 °C 46.2 °F /  7.9 °C 29.85in /  1010.7hPa SSW 1.7mph /  2.7km/h 8mph /  12.9km/h 86% 0.00in /  0mm 0 W/m2
18:39 50.2 °F /  10.1 °C 46.2 °F /  7.9 °C 29.85in /  1010.7hPa SSW 3.5mph /  5.6km/h 7mph /  11.3km/h 86% 0.00in /  0mm 0 W/m2
18:44 50.2 °F /  10.1 °C 46.2 °F /  7.9 °C 29.84in /  1010.4hPa SSW 2.2mph /  3.5km/h 7mph /  11.3km/h 86% 0.00in /  0mm 0 W/m2
18:49 50.2 °F /  10.1 °C 46.2 °F /  7.9 °C 29.84in /  1010.4hPa South 4.6mph /  7.4km/h 8mph /  12.9km/h 86% 0.00in /  0mm 0 W/m2
18:54 50.2 °F /  10.1 °C 46 °F /  7.8 °C 29.84in /  1010.4hPa SSW 3.6mph /  5.8km/h 7mph /  11.3km/h 85.4% 0.00in /  0mm 0 W/m2
18:59 50.2 °F /  10.1 °C 46.2 °F /  7.9 °C 29.84in /  1010.4hPa SSW 2.5mph /  4km/h 7mph /  11.3km/h 86% 0.00in /  0mm 0 W/m2
19:04 50.2 °F /  10.1 °C 46.2 °F /  7.9 °C 29.83in /  1010hPa SSW 4.1mph /  6.6km/h 11mph /  17.7km/h 86% 0.00in /  0mm 0 W/m2
19:09 50.2 °F /  10.1 °C 46.2 °F /  7.9 °C 29.83in /  1010hPa SSW 4.8mph /  7.7km/h 11mph /  17.7km/h 86% 0.00in /  0mm 0 W/m2
19:14 50.2 °F /  10.1 °C 46.2 °F /  7.9 °C 29.83in /  1010hPa SSW 6.4mph /  10.3km/h 14mph /  22.5km/h 86% 0.00in /  0mm 0 W/m2
19:19 50.2 °F /  10.1 °C 46.2 °F /  7.9 °C 29.82in /  1009.7hPa SSW 2.2mph /  3.5km/h 14mph /  22.5km/h 86% 0.00in /  0mm 0 W/m2
19:24 50.2 °F /  10.1 °C 46.2 °F /  7.9 °C 29.82in /  1009.7hPa SW 5mph /  8km/h 13mph /  20.9km/h 86% 0.00in /  0mm 0 W/m2
19:29 50.4 °F /  10.2 °C 46.4 °F /  8 °C 29.82in /  1009.7hPa SSW 3.6mph /  5.8km/h 10mph /  16.1km/h 86% 0.00in /  0mm 0 W/m2
19:34 50.4 °F /  10.2 °C 46.5 °F /  8.1 °C 29.82in /  1009.7hPa SSW 5.4mph /  8.7km/h 11mph /  17.7km/h 86.4% 0.00in /  0mm 0 W/m2
19:39 50.4 °F /  10.2 °C 46.6 °F /  8.1 °C 29.82in /  1009.7hPa SW 6.6mph /  10.6km/h 13mph /  20.9km/h 86.8% 0.00in /  0mm 0 W/m2
19:44 50.4 °F /  10.2 °C 46.6 °F /  8.1 °C 29.81in /  1009.4hPa SSW 5.4mph /  8.7km/h 11mph /  17.7km/h 87% 0.00in /  0mm 0 W/m2
19:49 50.4 °F /  10.2 °C 46.6 °F /  8.1 °C 29.82in /  1009.7hPa SSW 4.4mph /  7.1km/h 15mph /  24.1km/h 87% 0.00in /  0mm 0 W/m2
19:54 50.5 °F /  10.3 °C 46.8 °F /  8.2 °C 29.81in /  1009.4hPa SSW 6mph /  9.7km/h 15mph /  24.1km/h 87% 0.00in /  0mm 0 W/m2
19:59 50.5 °F /  10.3 °C 46.8 °F /  8.2 °C 29.82in /  1009.7hPa SW 10.8mph /  17.4km/h 14mph /  22.5km/h 87% 0.00in /  0mm 0 W/m2
20:04 50.5 °F /  10.3 °C 46.8 °F /  8.2 °C 29.82in /  1009.7hPa SW 6.1mph /  9.8km/h 14mph /  22.5km/h 87% 0.00in /  0mm 0 W/m2
20:09 50.5 °F /  10.3 °C 46.8 °F /  8.2 °C 29.81in /  1009.4hPa SSW 8.8mph /  14.2km/h 14mph /  22.5km/h 87% 0.00in /  0mm 0 W/m2
20:14 50.5 °F /  10.3 °C 46.8 °F /  8.2 °C 29.80in /  1009hPa SW 7.8mph /  12.6km/h 15mph /  24.1km/h 87% 0.00in /  0mm 0 W/m2
20:19 50.7 °F /  10.4 °C 46.9 °F /  8.3 °C 29.80in /  1009hPa SW 11.5mph /  18.5km/h 17mph /  27.4km/h 87% 0.00in /  0mm 0 W/m2
20:24 50.7 °F /  10.4 °C 47.1 °F /  8.4 °C 29.80in /  1009hPa SSW 13.6mph /  21.9km/h 20mph /  32.2km/h 87.4% 0.00in /  0mm 0 W/m2
20:29 50.7 °F /  10.4 °C 47.3 °F /  8.5 °C 29.80in /  1009hPa SW 8.5mph /  13.7km/h 19mph /  30.6km/h 88% 0.00in /  0mm 0 W/m2
20:34 50.7 °F /  10.4 °C 47.3 °F /  8.5 °C 29.80in /  1009hPa SSW 9mph /  14.5km/h 17mph /  27.4km/h 88% 0.00in /  0mm 0 W/m2
20:39 50.7 °F /  10.4 °C 47.3 °F /  8.5 °C 29.79in /  1008.7hPa SSW 7.2mph /  11.6km/h 18mph /  29km/h 88% 0.00in /  0mm 0 W/m2
20:44 50.7 °F /  10.4 °C 47.3 °F /  8.5 °C 29.78in /  1008.4hPa SSW 8mph /  12.9km/h 16mph /  25.7km/h 88% 0.00in /  0mm 0 W/m2
20:49 50.5 °F /  10.3 °C 47.1 °F /  8.4 °C 29.78in /  1008.4hPa SSW 5.9mph /  9.5km/h 13mph /  20.9km/h 88% 0.00in /  0mm 0 W/m2
20:54 50.5 °F /  10.3 °C 47.3 °F /  8.5 °C 29.78in /  1008.4hPa SW 10mph /  16.1km/h 17mph /  27.4km/h 88.4% 0.00in /  0mm 0 W/m2
20:59 50.5 °F /  10.3 °C 47.5 °F /  8.6 °C 29.78in /  1008.4hPa SW 5.8mph /  9.3km/h 13mph /  20.9km/h 89% 0.00in /  0mm 0 W/m2
21:04 50.5 °F /  10.3 °C 47.5 °F /  8.6 °C 29.78in /  1008.4hPa SW 6.8mph /  10.9km/h 13mph /  20.9km/h 89% 0.00in /  0mm 0 W/m2
21:09 50.5 °F /  10.3 °C 47.5 °F /  8.6 °C 29.77in /  1008hPa SW 4.4mph /  7.1km/h 9mph /  14.5km/h 89% 0.00in /  0mm 0 W/m2
21:14 50.5 °F /  10.3 °C 47.5 °F /  8.6 °C 29.77in /  1008hPa South 3.7mph /  6km/h 10mph /  16.1km/h 89% 0.00in /  0mm 0 W/m2
21:19 50.6 °F /  10.3 °C 47.6 °F /  8.7 °C 29.76in /  1007.7hPa SSW 5.7mph /  9.2km/h 12mph /  19.3km/h 89% 0.00in /  0mm 0 W/m2
21:24 50.7 °F /  10.4 °C 47.7 °F /  8.7 °C 29.75in /  1007.3hPa SSW 8.2mph /  13.2km/h 16mph /  25.7km/h 89% 0.00in /  0mm 0 W/m2
21:29 50.8 °F /  10.4 °C 47.8 °F /  8.8 °C 29.75in /  1007.3hPa SSW 9.8mph /  15.8km/h 18mph /  29km/h 89% 0.00in /  0mm 0 W/m2
21:34 51.1 °F /  10.6 °C 47.9 °F /  8.8 °C 29.75in /  1007.3hPa South 11.2mph /  18km/h 19mph /  30.6km/h 88.8% 0.00in /  0mm 0 W/m2
21:39 51.1 °F /  10.6 °C 47.8 °F /  8.8 °C 29.74in /  1007hPa SSW 7.6mph /  12.2km/h 17mph /  27.4km/h 88.4% 0.00in /  0mm 0 W/m2
21:44 51.1 °F /  10.6 °C 47.7 °F /  8.7 °C 29.74in /  1007hPa SSW 13.3mph /  21.4km/h 21mph /  33.8km/h 88% 0.00in /  0mm 0 W/m2
21:49 51.3 °F /  10.7 °C 47.8 °F /  8.8 °C 29.73in /  1006.7hPa SSW 8.6mph /  13.8km/h 20mph /  32.2km/h 88% 0.00in /  0mm 0 W/m2
21:54 51.3 °F /  10.7 °C 47.9 °F /  8.8 °C 29.73in /  1006.7hPa SSW 11.8mph /  19km/h 22mph /  35.4km/h 88% 0.00in /  0mm 0 W/m2
21:59 51.3 °F /  10.7 °C 47.8 °F /  8.8 °C 29.73in /  1006.7hPa South 5.5mph /  8.9km/h 17mph /  27.4km/h 88% 0.00in /  0mm 0 W/m2
22:04 51.3 °F /  10.7 °C 47.8 °F /  8.8 °C 29.73in /  1006.7hPa South 5.6mph /  9km/h 13mph /  20.9km/h 88% 0.00in /  0mm 0 W/m2
22:09 51.3 °F /  10.7 °C 47.8 °F /  8.8 °C 29.72in /  1006.3hPa SW 5mph /  8km/h 10mph /  16.1km/h 88% 0.00in /  0mm 0 W/m2
22:14 51.3 °F /  10.7 °C 47.8 °F /  8.8 °C 29.72in /  1006.3hPa SSW 9.6mph /  15.4km/h 16mph /  25.7km/h 88% 0.00in /  0mm 0 W/m2
22:19 51.3 °F /  10.7 °C 47.6 °F /  8.7 °C 29.72in /  1006.3hPa SW 9mph /  14.5km/h 17mph /  27.4km/h 87.4% 0.00in /  0mm 0 W/m2
22:23 51.4 °F /  10.8 °C 47.7 °F /  8.7 °C 29.71in /  1006hPa SW 9.5mph /  15.3km/h 23mph /  37km/h 87% 0.00in /  0mm 0 W/m2
22:29 51.4 °F /  10.8 °C 47.7 °F /  8.7 °C 29.71in /  1006hPa South 5.4mph /  8.7km/h 13mph /  20.9km/h 87% 0.00in /  0mm 0 W/m2
22:34 51.4 °F /  10.8 °C 47.7 °F /  8.7 °C 29.70in /  1005.6hPa SW 10.8mph /  17.4km/h 19mph /  30.6km/h 87% 0.00in /  0mm 0 W/m2
22:39 51.4 °F /  10.8 °C 47.6 °F /  8.7 °C 29.70in /  1005.6hPa SSW 10.8mph /  17.4km/h 17mph /  27.4km/h 86.4% 0.00in /  0mm 0 W/m2
22:44 51.5 °F /  10.8 °C 47.5 °F /  8.6 °C 29.69in /  1005.3hPa SSW 13.7mph /  22km/h 22mph /  35.4km/h 86% 0.00in /  0mm 0 W/m2
22:49 51.6 °F /  10.9 °C 47.5 °F /  8.6 °C 29.68in /  1005hPa SW 6.6mph /  10.6km/h 18mph /  29km/h 86% 0.00in /  0mm 0 W/m2
22:54 51.6 °F /  10.9 °C 47.5 °F /  8.6 °C 29.67in /  1004.6hPa SW 13.3mph /  21.4km/h 27mph /  43.5km/h 86% 0.00in /  0mm 0 W/m2
22:59 51.8 °F /  11 °C 47.7 °F /  8.7 °C 29.66in /  1004.3hPa South 8.8mph /  14.2km/h 27mph /  43.5km/h 86% 0.00in /  0mm 0 W/m2
23:04 51.8 °F /  11 °C 47.7 °F /  8.7 °C 29.67in /  1004.6hPa SSW 6.4mph /  10.3km/h 27mph /  43.5km/h 86% 0.00in /  0mm 0 W/m2
23:09 51.8 °F /  11 °C 47.7 °F /  8.7 °C 29.66in /  1004.3hPa SSW 8.8mph /  14.2km/h 27mph /  43.5km/h 86% 0.00in /  0mm 0 W/m2
23:14 51.7 °F /  10.9 °C 47.6 °F /  8.7 °C 29.65in /  1003.9hPa SSW 9.7mph /  15.6km/h 19mph /  30.6km/h 86% 0.00in /  0mm 0 W/m2
23:19 51.6 °F /  10.9 °C 47.7 °F /  8.7 °C 29.65in /  1003.9hPa SSW 6.2mph /  10km/h 16mph /  25.7km/h 86.8% 0.00in /  0mm 0 W/m2
23:24 51.6 °F /  10.9 °C 47.9 °F /  8.8 °C 29.65in /  1003.9hPa SSW 11.1mph /  17.9km/h 22mph /  35.4km/h 87.4% 0.00in /  0mm 0 W/m2
23:29 51.4 °F /  10.8 °C 48 °F /  8.9 °C 29.64in /  1003.6hPa SSW 9.2mph /  14.8km/h 18mph /  29km/h 88% 0.00in /  0mm 0 W/m2
23:34 51.4 °F /  10.8 °C 48.3 °F /  9.1 °C 29.64in /  1003.6hPa SSW 8.2mph /  13.2km/h 22mph /  35.4km/h 88.8% 0.01in /  0.25mm 0 W/m2
23:39 51.3 °F /  10.7 °C 48.2 °F /  9 °C 29.64in /  1003.6hPa SSW 10.6mph /  17.1km/h 22mph /  35.4km/h 89% 0.02in /  0.51mm 0 W/m2
23:44 51.3 °F /  10.7 °C 48.2 °F /  9 °C 29.63in /  1003.3hPa SSW 8mph /  12.9km/h 22mph /  35.4km/h 89% 0.02in /  0.51mm 0 W/m2
23:49 51.3 °F /  10.7 °C 48.4 °F /  9.1 °C 29.63in /  1003.3hPa SSW 10.2mph /  16.4km/h 20mph /  32.2km/h 90% 0.03in /  0.76mm 0 W/m2
23:54 51.3 °F /  10.7 °C 48.4 °F /  9.1 °C 29.62in /  1002.9hPa SSW 8mph /  12.9km/h 20mph /  32.2km/h 90% 0.03in /  0.76mm 0 W/m2
23:59 51.3 °F /  10.7 °C 48.4 °F /  9.1 °C 29.62in /  1002.9hPa South 12.8mph /  20.6km/h 22mph /  35.4km/h 90% 0.05in /  1.27mm 0 W/m2
Bath Spa Weather
Compliments of Weather Underground - 2 mb